This is the latest recevied weather packets stored in our database for station/object KG5APU. If no packets are shown the sender has not sent any weather packets the latest 10 day(s).
| Time | Temp. | Humidity | Pressure | Rain* | Wind** | Luminosity | Snow |
|---|---|---|---|---|---|---|---|
| 1777591721 | 16.67° C | 76% | 1014.3 hPa | 0 mm | - | 36 W/m² | - |
| 1777591118 | 16.67° C | 77% | 1014.3 hPa | 0 mm | - | 68 W/m² | - |
| 1777590516 | 16.67° C | 77% | 1014.1 hPa | 0 mm | - | 74 W/m² | - |
| 1777589915 | 16.67° C | 77% | 1014.1 hPa | 0 mm | - | 82 W/m² | - |
| 1777589315 | 16.67° C | 78% | 1014.3 hPa | 0 mm | - | 60 W/m² | - |
| 1777588714 | 16.67° C | 78% | 1014.4 hPa | 0 mm | - | 48 W/m² | - |
| 1777588111 | 16.67° C | 79% | 1014.3 hPa | 0 mm | - | 54 W/m² | - |
| 1777587507 | 16.67° C | 78% | 1014.4 hPa | 0 mm | - | 57 W/m² | - |
| 1777586904 | 16.67° C | 77% | 1014.8 hPa | 0 mm | - | 45 W/m² | - |
| 1777586303 | 16.67° C | 77% | 1014.9 hPa | 0 mm | - | 46 W/m² | - |
| 1777585701 | 16.67° C | 76% | 1015 hPa | 0 mm | - | 39 W/m² | - |
| 1777585097 | 16.67° C | 77% | 1014.9 hPa | 0 mm | - | 42 W/m² | - |
| 1777584491 | 16.67° C | 77% | 1015 hPa | 0 mm | - | 59 W/m² | - |
| 1777583886 | 16.67° C | 77% | 1014.6 hPa | 0 mm | - | 73 W/m² | - |
| 1777583286 | 17.22° C | 77% | 1014.7 hPa | 0 mm | - | 69 W/m² | - |
| 1777582686 | 17.78° C | 76% | 1014.3 hPa | 0 mm | - | 256 W/m² | - |
| 1777582084 | 17.22° C | 78% | 1014.2 hPa | 0 mm | - | 243 W/m² | - |
| 1777581483 | 16.67° C | 78% | 1014.2 hPa | 0 mm | - | 190 W/m² | - |
| 1777580879 | 16.67° C | 78% | 1015 hPa | 0 mm | - | 134 W/m² | - |
| 1777580276 | 16.67° C | 80% | 1015.5 hPa | 0 mm | - | 97 W/m² | - |
| 1777579675 | 16.67° C | 78% | 1015.4 hPa | 0 mm | - | 69 W/m² | - |
| 1777579075 | 16.67° C | 78% | 1015.4 hPa | 0 mm | - | 77 W/m² | - |
| 1777578470 | 16.67° C | 79% | 1015.1 hPa | 0 mm | - | 82 W/m² | - |
| 1777577867 | 16.67° C | 79% | 1015 hPa | 0 mm | - | 72 W/m² | - |
| 1777577266 | 16.67° C | 79% | 1014.7 hPa | 0 mm | - | 71 W/m² | - |
* Rain latest hour (hover to see other rain measurements)
** Current wind speed in m/s (hover to see current wind gust speed)